Time;durP1;ratioP1;P1;durP2;ratioP2;P2;SDS_P1;SDS_P2;PMS_P1;PMS_P2;Temp;Humidity;BMP_temperature;BMP_pressure;BME280_temperature;BME280_humidity;BME280_pressure;Samples;Min_cycle;Max_cycle;Signal;HPM_P1;HPM_P2
2024/03/28 00:02:31;;;;;;;7.97;3.75;;;;;;;20.98;47.17;97823.49;2299501;76;49983;-80
2024/03/28 00:05:32;;;;;;;7.92;4.17;;;;;;;20.98;47.21;97816.77;2330041;75;22446;-80
2024/03/28 00:08:35;;;;;;;7.95;4.00;;;;;;;20.97;47.18;97814.63;2329963;76;52300;-81
2024/03/28 00:11:37;;;;;;;7.50;4.35;;;;;;;20.97;47.17;97812.48;2329947;76;49973;-81
2024/03/28 00:14:39;;;;;;;7.97;3.67;;;;;;;20.97;47.18;97812.48;2329958;75;50737;-81
2024/03/28 00:17:41;;;;;;;8.83;4.45;;;;;;;20.97;47.17;97821.89;2265756;76;51653;-81
2024/03/28 00:20:43;;;;;;;10.45;4.55;;;;;;;20.95;47.15;97816.77;2329993;76;50690;-81
2024/03/28 00:23:46;;;;;;;7.50;4.12;;;;;;;20.96;47.18;97810.34;2329854;75;51481;-81
2024/03/28 00:26:48;;;;;;;9.25;4.03;;;;;;;20.95;47.17;97799.30;2295878;76;52343;-81
2024/03/28 00:29:50;;;;;;;7.80;4.03;;;;;;;20.96;47.15;97798.76;2329999;76;51356;-81
2024/03/28 00:32:52;;;;;;;10.68;4.25;;;;;;;20.96;47.15;97792.03;2327994;76;51189;-81
2024/03/28 00:35:54;;;;;;;9.53;4.10;;;;;;;20.96;47.14;97786.66;2327948;76;52405;-81
2024/03/28 00:38:57;;;;;;;7.28;4.10;;;;;;;20.96;47.12;97791.52;2328103;76;52413;-81
2024/03/28 00:41:59;;;;;;;13.68;4.30;;;;;;;20.95;47.14;97797.95;2293982;76;49493;-81
2024/03/28 00:45:02;;;;;;;10.50;4.35;;;;;;;20.93;47.15;97781.28;2327992;76;50302;-81
2024/03/28 00:48:04;;;;;;;8.48;4.53;;;;;;;20.94;47.15;97793.67;2328057;76;52052;-81
2024/03/28 00:51:06;;;;;;;6.58;3.72;;;;;;;20.94;47.16;97782.91;2267245;76;51096;-80
2024/03/28 00:54:08;;;;;;;6.92;4.50;;;;;;;20.93;47.17;97779.94;2328028;76;50604;-81
2024/03/28 00:57:11;;;;;;;12.35;4.85;;;;;;;20.94;47.15;97773.51;2327721;76;50561;-80
2024/03/28 01:00:14;;;;;;;10.65;3.92;;;;;;;20.93;47.17;97769.73;2328120;76;51255;-81
2024/03/28 01:03:17;;;;;;;8.13;3.92;;;;;;;20.94;47.17;97753.89;2308852;76;51445;-81
2024/03/28 01:06:19;;;;;;;12.88;4.35;;;;;;;20.93;47.17;97749.58;2266353;76;50915;-80
2024/03/28 01:09:21;;;;;;;6.53;4.08;;;;;;;20.93;47.15;97757.09;2330684;76;50272;-82
2024/03/28 01:12:23;;;;;;;9.08;4.33;;;;;;;20.92;47.16;97756.84;2330641;76;50413;-82
2024/03/28 01:15:26;;;;;;;11.73;4.50;;;;;;;20.92;47.17;97746.08;2282755;76;50044;-82
2024/03/28 01:18:28;;;;;;;10.45;4.22;;;;;;;20.93;47.18;97745.55;2308612;76;51572;-81
2024/03/28 01:21:30;;;;;;;9.03;4.08;;;;;;;20.91;47.14;97743.14;2330498;76;50778;-81
2024/03/28 01:24:32;;;;;;;7.58;4.10;;;;;;;20.91;47.16;97743.66;2330535;76;50688;-81
2024/03/28 01:27:40;;;;;;;8.55;4.28;;;;;;;20.92;47.15;97737.22;2329982;76;51439;-82
2024/03/28 01:30:42;;;;;;;8.80;4.00;;;;;;;20.92;47.16;97738.02;2308100;76;50961;-82
2024/03/28 01:33:45;;;;;;;11.95;3.90;;;;;;;20.91;47.13;97732.39;2330569;76;51517;-82
2024/03/28 01:36:47;;;;;;;7.62;4.37;;;;;;;20.91;47.17;97731.05;2308037;76;51339;-81
2024/03/28 01:39:49;;;;;;;5.78;3.60;;;;;;;20.91;47.21;97724.33;2308023;76;49778;-81
2024/03/28 01:42:51;;;;;;;10.15;4.15;;;;;;;20.91;47.18;97712.23;2308142;76;52165;-82
2024/03/28 01:45:54;;;;;;;6.12;3.77;;;;;;;20.91;47.19;97708.20;2329906;76;52249;-82
2024/03/28 01:48:56;;;;;;;6.92;4.22;;;;;;;20.91;47.19;97700.66;2308202;76;52287;-81
2024/03/28 01:51:59;;;;;;;8.48;4.28;;;;;;;20.91;47.20;97692.59;2330393;76;51477;-81
2024/03/28 01:55:01;;;;;;;9.15;4.03;;;;;;;20.91;47.18;97701.48;2307961;76;50039;-81
2024/03/28 01:58:04;;;;;;;7.45;3.95;;;;;;;20.92;47.17;97687.50;2330152;76;50322;-81
2024/03/28 02:01:07;;;;;;;7.10;4.10;;;;;;;20.91;47.15;97688.05;2330393;75;51496;-80
2024/03/28 02:04:09;;;;;;;9.70;4.15;;;;;;;20.91;47.10;97674.60;2307964;76;49579;-80
2024/03/28 02:07:11;;;;;;;7.75;4.28;;;;;;;20.91;47.11;97664.37;2307794;76;50636;-80
2024/03/28 02:10:13;;;;;;;8.55;3.77;;;;;;;20.92;47.06;97670.03;2308170;76;52098;-80
2024/03/28 02:13:16;;;;;;;7.75;4.35;;;;;;;20.92;47.06;97671.38;2306935;76;51240;-80
2024/03/28 02:16:18;;;;;;;7.40;4.03;;;;;;;20.91;47.05;97666.54;2329918;76;50695;-80
2024/03/28 02:19:20;;;;;;;6.20;4.30;;;;;;;20.91;47.05;97656.30;2282595;76;49548;-80
2024/03/28 02:22:22;;;;;;;7.17;3.92;;;;;;;20.91;47.05;97650.93;2330269;76;50221;-81
2024/03/28 02:25:25;;;;;;;9.48;4.03;;;;;;;20.91;47.03;97666.54;2328036;76;50397;-83
2024/03/28 02:28:27;;;;;;;7.47;4.25;;;;;;;20.90;47.02;97675.66;2287838;76;49473;-81
2024/03/28 02:31:29;;;;;;;8.98;4.20;;;;;;;20.91;47.01;97683.18;2321838;76;50396;-80
2024/03/28 02:34:32;;;;;;;6.37;3.90;;;;;;;20.92;47.04;97682.13;2322289;76;50322;-80
2024/03/28 02:37:34;;;;;;;6.62;3.95;;;;;;;20.92;47.06;97685.61;2368514;75;50556;-81
2024/03/28 02:40:37;;;;;;;6.78;4.15;;;;;;;20.92;47.06;97676.20;2371125;75;50828;-81
2024/03/28 02:43:39;;;;;;;7.70;4.08;;;;;;;20.92;47.09;97683.47;2371048;75;51469;-81
2024/03/28 02:46:41;;;;;;;8.40;4.03;;;;;;;20.94;47.00;97688.04;2335370;75;49537;-81
2024/03/28 02:49:43;;;;;;;8.03;4.15;;;;;;;20.94;47.00;97682.66;2371075;75;50367;-81
2024/03/28 02:52:45;;;;;;;10.18;4.28;;;;;;;20.94;46.97;97666.54;2334613;75;50037;-80
2024/03/28 02:55:51;;;;;;;6.97;3.98;;;;;;;20.93;46.98;97671.08;2370874;75;50564;-81
2024/03/28 02:58:53;;;;;;;7.15;4.12;;;;;;;20.92;47.00;97685.61;2335676;75;51451;-81
2024/03/28 03:01:55;;;;;;;7.05;4.08;;;;;;;20.93;46.99;97675.11;2309734;75;51064;-81
2024/03/28 03:04:58;;;;;;;8.15;4.17;;;;;;;20.92;47.01;97678.09;2371089;75;51431;-81
2024/03/28 03:08:01;;;;;;;6.62;3.80;;;;;;;20.93;46.98;97684.52;2371032;75;51694;-81
2024/03/28 03:11:04;;;;;;;8.45;4.00;;;;;;;20.93;47.04;97681.03;2335768;75;51151;-80
2024/03/28 03:14:06;;;;;;;6.65;3.83;;;;;;;20.93;47.07;97671.08;2371067;75;50416;-81
2024/03/28 03:17:09;;;;;;;5.60;3.98;;;;;;;20.93;47.06;97671.08;2371025;75;52441;-81
2024/03/28 03:20:14;;;;;;;6.50;4.17;;;;;;;20.93;47.09;97675.11;2335168;75;51313;-81
2024/03/28 03:23:16;;;;;;;8.50;3.83;;;;;;;20.94;47.05;97667.88;2335229;75;50723;-81
2024/03/28 03:26:24;;;;;;;5.87;3.92;;;;;;;20.93;47.04;97667.05;2335543;75;50862;-81
2024/03/28 03:36:06;;;;;;;6.30;3.77;;;;;;;20.94;47.00;97667.88;2341359;75;22491;-81
2024/03/28 03:39:08;;;;;;;5.53;4.00;;;;;;;20.93;47.02;97657.64;2336183;75;50354;-80
2024/03/28 03:42:10;;;;;;;7.30;4.05;;;;;;;20.93;47.00;97663.02;2371226;75;50263;-81
2024/03/28 03:45:13;;;;;;;6.90;4.28;;;;;;;20.93;47.00;97659.53;2370824;75;50625;-81
2024/03/28 03:48:15;;;;;;;6.55;4.17;;;;;;;20.93;47.01;97665.70;2371181;75;51441;-81
2024/03/28 03:51:17;;;;;;;6.83;4.30;;;;;;;20.92;47.00;97664.66;2336080;75;49998;-82
2024/03/28 03:54:19;;;;;;;8.28;3.87;;;;;;;20.92;46.99;97672.17;2371160;75;51442;-82
2024/03/28 03:57:21;;;;;;;10.03;4.42;;;;;;;20.92;46.99;97676.20;2370741;75;50312;-81
2024/03/28 04:00:24;;;;;;;8.23;4.03;;;;;;;20.92;47.00;97674.06;2335703;75;49990;-82
2024/03/28 04:03:26;;;;;;;5.03;4.20;;;;;;;20.92;47.01;97679.44;2370947;75;51437;-80
2024/03/28 04:06:29;;;;;;;7.33;4.30;;;;;;;20.92;47.02;97671.38;2370857;75;50070;-80
2024/03/28 04:09:32;;;;;;;7.42;4.20;;;;;;;20.91;47.03;97669.23;2371053;75;51550;-79
2024/03/28 04:12:34;;;;;;;6.08;4.17;;;;;;;20.92;47.04;97674.06;2335874;75;49707;-81
2024/03/28 04:15:36;;;;;;;8.48;4.70;;;;;;;20.91;47.04;97671.92;2335274;75;49532;-81
2024/03/28 04:18:38;;;;;;;6.85;4.50;;;;;;;20.92;47.04;97670.03;2371141;75;50539;-81
2024/03/28 04:21:40;;;;;;;8.93;3.80;;;;;;;20.91;46.97;97665.20;2371209;75;50668;-81
2024/03/28 04:24:43;;;;;;;6.35;4.50;;;;;;;20.91;47.01;97668.40;2335724;75;51038;-81
2024/03/28 04:27:45;;;;;;;7.33;3.90;;;;;;;20.91;46.98;97664.37;2370694;75;51215;-82
2024/03/28 04:30:47;;;;;;;9.35;4.75;;;;;;;20.91;47.01;97669.73;2370918;75;50667;-81
2024/03/28 04:33:49;;;;;;;8.80;4.05;;;;;;;20.91;47.03;97667.89;2334537;75;51394;-82
2024/03/28 04:36:52;;;;;;;7.87;4.22;;;;;;;20.91;47.07;97670.57;2370787;75;51701;-81
2024/03/28 04:39:54;;;;;;;5.05;4.30;;;;;;;20.91;47.07;97667.05;2335504;75;50909;-81
2024/03/28 04:42:56;;;;;;;7.03;4.70;;;;;;;20.90;47.07;97668.94;2371098;75;50252;-80
2024/03/28 04:45:58;;;;;;;4.70;3.67;;;;;;;20.91;47.07;97666.54;2335578;75;50210;-81
2024/03/28 04:49:00;;;;;;;7.78;4.08;;;;;;;20.90;47.07;97668.94;2335494;75;49344;-81
2024/03/28 04:52:03;;;;;;;4.87;3.85;;;;;;;20.90;47.08;97667.59;2371121;75;50155;-81
2024/03/28 04:55:05;;;;;;;6.08;4.30;;;;;;;20.90;47.08;97675.66;2334372;75;50125;-81
2024/03/28 04:58:07;;;;;;;6.60;4.25;;;;;;;20.91;47.11;97671.09;2334559;75;51389;-80
2024/03/28 05:01:10;;;;;;;7.53;4.35;;;;;;;20.90;47.10;97681.03;2370767;75;51542;-80
2024/03/28 05:04:12;;;;;;;6.12;4.05;;;;;;;20.89;47.11;97688.84;2335251;75;52394;-79
2024/03/28 05:07:15;;;;;;;5.30;4.05;;;;;;;20.90;47.10;97693.13;2370851;75;51460;-80
2024/03/28 05:10:17;;;;;;;8.00;4.60;;;;;;;20.90;47.12;97691.79;2370727;75;51491;-79
2024/03/28 05:13:19;;;;;;;7.42;4.22;;;;;;;20.90;47.05;97693.13;2308081;75;49573;-80
2024/03/28 05:16:22;;;;;;;5.47;4.22;;;;;;;20.90;47.04;97699.85;2370570;75;50416;-80
2024/03/28 05:19:24;;;;;;;6.72;4.47;;;;;;;20.88;47.06;97713.58;2334712;75;50505;-80
2024/03/28 05:22:26;;;;;;;6.40;4.35;;;;;;;20.89;47.04;97718.41;2371265;75;51521;-80
2024/03/28 05:25:28;;;;;;;8.35;4.40;;;;;;;20.88;47.05;97727.02;2371112;75;50730;-80
2024/03/28 05:28:31;;;;;;;8.58;4.25;;;;;;;20.89;47.04;97749.31;2371245;75;50369;-80
2024/03/28 05:31:33;;;;;;;5.17;4.20;;;;;;;20.88;47.04;97747.17;2335459;75;50192;-80
2024/03/28 05:34:35;;;;;;;8.70;4.10;;;;;;;20.89;47.02;97752.00;2371115;75;51622;-81
2024/03/28 05:37:38;;;;;;;5.03;3.72;;;;;;;20.89;47.05;97749.31;2309438;75;51464;-80
2024/03/28 05:40:40;;;;;;;7.85;4.25;;;;;;;20.89;47.07;97749.31;2370560;75;51341;-81
2024/03/28 05:43:42;;;;;;;5.72;4.25;;;;;;;20.88;47.08;97764.64;2370645;75;51572;-82
2024/03/28 05:46:44;;;;;;;6.45;4.12;;;;;;;20.90;47.08;97779.14;2334935;75;51522;-82
2024/03/28 05:49:46;;;;;;;6.50;4.17;;;;;;;20.90;47.09;97779.14;2370672;75;51484;-81
2024/03/28 05:52:49;;;;;;;9.93;4.70;;;;;;;20.89;47.34;97780.22;2335101;75;51693;-80
2024/03/28 05:55:51;;;;;;;9.30;5.33;;;;;;;20.90;47.77;97791.23;2335040;75;50285;-80
2024/03/28 05:58:53;;;;;;;8.78;4.65;;;;;;;20.88;47.83;97795.55;2336038;75;49996;-80
2024/03/28 06:01:55;;;;;;;8.03;4.55;;;;;;;20.91;47.92;97797.41;2335909;75;50039;-80
2024/03/28 06:04:57;;;;;;;10.32;4.87;;;;;;;20.92;48.02;97807.11;2366088;75;51524;-80
2024/03/28 06:08:00;;;;;;;9.73;5.33;;;;;;;20.93;47.99;97811.39;2330126;75;51449;-80
2024/03/28 06:11:02;;;;;;;9.45;4.80;;;;;;;20.92;48.14;97814.63;2355659;75;51497;-81
2024/03/28 06:14:08;;;;;;;16.40;4.95;;;;;;;20.92;48.17;97810.59;2330772;75;51623;-83
2024/03/28 06:17:11;;;;;;;9.80;4.90;;;;;;;20.94;48.42;97812.48;2330203;75;50976;-81
2024/03/28 06:20:13;;;;;;;25.80;5.33;;;;;;;20.95;48.65;97816.77;2355887;75;51642;-83
2024/03/28 06:23:15;;;;;;;20.05;5.50;;;;;;;20.94;48.93;97817.86;2355759;75;51520;-82
2024/03/28 06:26:17;;;;;;;15.43;4.72;;;;;;;20.98;48.88;97825.64;2304486;75;51025;-83
2024/03/28 06:29:20;;;;;;;19.95;5.85;;;;;;;20.99;49.13;97823.23;2355836;75;50409;-81
2024/03/28 06:32:26;;;;;;;20.02;5.00;;;;;;;21.00;49.23;97822.70;2330971;75;51492;-81
2024/03/28 06:35:28;;;;;;;;;;;;;;;21.02;49.27;97825.93;2333143;75;51231;-81
2024/03/28 06:38:30;;;;;;;13.85;5.70;;;;;;;21.05;49.27;97840.17;2330841;75;50410;-81
2024/03/28 06:41:32;;;;;;;15.93;5.22;;;;;;;21.06;49.34;97850.64;2330836;75;50336;-81
2024/03/28 06:44:34;;;;;;;17.95;4.65;;;;;;;21.06;49.32;97865.97;2330582;75;50637;-81
2024/03/28 06:47:36;;;;;;;16.32;5.37;;;;;;;21.05;49.31;97854.42;2355454;75;51438;-80
2024/03/28 06:50:38;;;;;;;13.35;5.17;;;;;;;21.04;49.38;97857.36;2330262;75;50924;-80
2024/03/28 06:53:41;;;;;;;12.93;5.08;;;;;;;21.04;49.46;97858.19;2330298;75;51416;-82
2024/03/28 06:56:43;;;;;;;19.62;5.30;;;;;;;21.02;49.31;97876.47;2355024;75;50337;-82
2024/03/28 06:59:45;;;;;;;15.00;5.00;;;;;;;21.02;49.24;97877.81;2330195;75;50045;-82
2024/03/28 07:02:47;;;;;;;13.75;4.33;;;;;;;21.02;49.21;97889.91;2328968;75;50433;-82
2024/03/28 07:05:50;;;;;;;11.45;4.25;;;;;;;21.01;49.13;97885.59;2354821;75;51489;-83
2024/03/28 07:08:52;;;;;;;10.48;4.62;;;;;;;21.02;49.05;97904.69;2355487;75;50848;-83
2024/03/28 07:11:55;;;;;;;19.52;4.87;;;;;;;21.01;49.11;97918.39;2356370;75;50333;-84
2024/03/28 07:14:57;;;;;;;13.58;4.30;;;;;;;21.01;49.15;97931.28;2331343;75;52521;-83
2024/03/28 07:17:59;;;;;;;8.93;4.22;;;;;;;21.00;49.07;97939.09;2356343;75;50748;-82
2024/03/28 07:21:01;;;;;;;13.80;4.55;;;;;;;21.02;49.06;97956.31;2355419;75;50763;-81
2024/03/28 07:24:05;;;;;;;11.85;4.00;;;;;;;21.00;49.03;97945.81;2330619;75;51072;-81
2024/03/28 07:27:07;;;;;;;20.77;4.05;;;;;;;21.01;48.95;97946.61;2355722;75;51436;-81
2024/03/28 07:30:10;;;;;;;12.43;4.50;;;;;;;21.00;48.93;97937.75;2356101;75;50131;-80
2024/03/28 07:33:12;;;;;;;13.85;4.33;;;;;;;21.00;48.86;97951.19;2329612;75;51420;-82
2024/03/28 07:36:15;;;;;;;14.43;4.20;;;;;;;20.99;48.84;97972.44;2355302;75;51420;-82
2024/03/28 07:39:18;;;;;;;14.35;4.37;;;;;;;20.98;49.40;97972.14;2330541;75;50820;-81
2024/03/28 07:42:20;;;;;;;15.38;4.28;;;;;;;21.00;49.44;97977.27;2355698;75;50941;-82
2024/03/28 07:45:22;;;;;;;12.95;3.92;;;;;;;20.99;49.43;97982.36;2355136;75;50570;-81
2024/03/28 07:48:24;;;;;;;13.95;3.92;;;;;;;20.99;49.37;97995.28;2304536;75;52496;-81
2024/03/28 07:51:27;;;;;;;10.55;3.90;;;;;;;20.98;49.31;97994.99;2330280;75;51359;-82
2024/03/28 07:54:30;;;;;;;17.20;4.05;;;;;;;20.98;49.27;97989.62;2355177;75;52613;-81
2024/03/28 07:57:32;;;;;;;16.75;4.15;;;;;;;20.98;49.25;98010.32;2330323;75;51543;-83
2024/03/28 08:00:35;;;;;;;12.20;3.83;;;;;;;20.98;49.24;98016.50;2355379;75;50592;-82
2024/03/28 08:03:37;;;;;;;9.20;3.98;;;;;;;20.96;49.21;98007.91;2304516;75;49964;-81
2024/03/28 08:06:42;;;;;;;22.95;3.75;;;;;;;20.96;49.19;98005.22;2331294;75;51310;-82
2024/03/28 08:09:44;;;;;;;12.93;4.03;;;;;;;20.96;49.17;98009.26;2355357;75;24908;-81
2024/03/28 08:12:46;;;;;;;12.03;3.95;;;;;;;20.95;49.28;98003.59;2329808;75;49635;-81
2024/03/28 08:15:48;;;;;;;11.25;3.87;;;;;;;20.97;49.42;98000.66;2354854;74;50383;-82
2024/03/28 08:18:51;;;;;;;11.88;3.98;;;;;;;20.96;49.39;97999.84;2330002;75;50389;-82
2024/03/28 08:21:53;;;;;;;15.20;4.35;;;;;;;20.96;49.34;98013.29;2354994;75;51483;-81
2024/03/28 08:24:55;;;;;;;7.17;3.50;;;;;;;20.97;49.35;98012.75;2329626;75;51432;-81
2024/03/28 08:27:58;;;;;;;15.72;3.80;;;;;;;20.97;49.30;98000.11;2329514;75;50072;-80
2024/03/28 08:31:00;;;;;;;10.38;3.40;;;;;;;20.97;49.32;98003.34;2330151;75;51383;-81
2024/03/28 08:34:03;;;;;;;7.30;3.25;;;;;;;20.96;49.32;98006.57;2355021;74;50733;-81
2024/03/28 08:37:05;;;;;;;12.05;3.87;;;;;;;20.96;49.29;98005.22;2329750;75;50074;-81
2024/03/28 08:40:10;;;;;;;9.75;3.55;;;;;;;20.98;49.27;98000.38;2354921;75;50672;-82
2024/03/28 08:43:13;;;;;;;10.58;3.02;;;;;;;20.97;49.25;97992.59;2329458;75;50255;-80
2024/03/28 08:46:15;;;;;;;9.28;3.00;;;;;;;20.97;49.21;98003.34;2354598;74;50314;-81
2024/03/28 08:49:17;;;;;;;9.55;3.08;;;;;;;20.98;49.18;98015.16;2329761;75;50674;-81
2024/03/28 08:52:19;;;;;;;9.05;2.80;;;;;;;20.97;49.18;98026.19;2329592;75;49548;-81
2024/03/28 08:55:23;;;;;;;9.63;2.90;;;;;;;20.97;49.14;98040.43;2354981;74;50728;-81
2024/03/28 08:58:25;;;;;;;9.35;3.30;;;;;;;20.97;49.15;98043.66;2334628;75;50419;-81
2024/03/28 09:01:28;;;;;;;8.48;2.92;;;;;;;20.97;49.17;98065.97;2306628;76;49289;-81
2024/03/28 09:04:30;;;;;;;7.92;3.15;;;;;;;20.97;49.13;98061.13;2313081;76;50700;-81
2024/03/28 09:07:35;;;;;;;7.12;2.98;;;;;;;20.96;49.13;98060.84;2303271;76;50722;-81
2024/03/28 09:10:39;;;;;;;6.67;2.65;;;;;;;20.97;49.14;98063.28;2303837;77;50372;-81
2024/03/28 09:13:41;;;;;;;9.23;2.90;;;;;;;20.96;49.11;98063.02;2303590;77;52066;-81
2024/03/28 09:16:43;;;;;;;5.92;2.40;;;;;;;20.96;49.09;98066.22;2254627;77;50050;-81
2024/03/28 09:19:45;;;;;;;7.75;3.00;;;;;;;20.97;49.08;98063.28;2279415;77;51448;-81
2024/03/28 09:22:47;;;;;;;7.33;2.92;;;;;;;20.97;49.05;98064.63;2303458;77;51452;-80
2024/03/28 09:25:50;;;;;;;7.00;2.80;;;;;;;20.97;49.02;98060.59;2279359;77;49470;-81
2024/03/28 09:28:57;;;;;;;9.05;2.40;;;;;;;20.98;49.00;98056.83;2303842;77;51505;-80
2024/03/28 09:31:58;;;;;;;7.85;2.77;;;;;;;20.99;48.98;98049.56;2280668;77;22725;-82
2024/03/28 09:35:01;;;;;;;7.95;2.67;;;;;;;20.99;49.01;98054.42;2279252;77;51466;-80
2024/03/28 09:38:03;;;;;;;8.48;2.47;;;;;;;20.99;49.02;98054.42;2279524;77;50339;-80
2024/03/28 09:41:08;;;;;;;8.80;2.52;;;;;;;21.00;49.01;98058.72;2254798;76;50896;-80
2024/03/28 09:44:10;;;;;;;;;;;;;;;21.00;49.01;98070.02;2306670;77;51493;-80
2024/03/28 09:47:13;;;;;;;8.20;2.72;;;;;;;20.99;49.03;98077.28;2304362;77;50375;-80
2024/03/28 09:50:18;;;;;;;7.58;2.72;;;;;;;20.99;49.00;98078.63;2279749;77;50063;-81
2024/03/28 09:53:20;;;;;;;;;;;;;;;20.99;48.96;98066.52;2306658;77;51440;-81
2024/03/28 09:56:22;;;;;;;6.85;2.50;;;;;;;20.99;48.95;98049.56;2279970;77;51013;-81
2024/03/28 09:59:27;;;;;;;7.90;2.70;;;;;;;20.99;48.94;98043.67;2279666;77;50902;-81
2024/03/28 10:02:35;;;;;;;5.03;2.30;;;;;;;21.02;48.87;98043.69;2280618;77;22482;-81
2024/03/28 10:05:37;;;;;;;11.50;2.70;;;;;;;21.03;48.81;98050.13;2283349;77;51431;-81
2024/03/28 10:08:39;;;;;;;7.80;2.50;;;;;;;21.01;48.89;98069.73;2316171;76;50824;-82
2024/03/28 10:11:43;;;;;;;7.15;2.58;;;;;;;21.01;48.92;98074.31;2318636;76;50914;-80
2024/03/28 10:14:55;;;;;;;8.85;2.35;;;;;;;21.01;48.91;98081.83;2318469;76;51533;-81
2024/03/28 10:18:02;;;;;;;3.90;2.20;;;;;;;21.02;48.91;98086.70;2291292;74;51568;-81
2024/03/28 10:21:05;;;;;;;6.17;2.10;;;;;;;21.01;48.95;98110.60;2346888;74;50769;-83
2024/03/28 10:24:18;;;;;;;9.43;2.37;;;;;;;21.02;48.90;98109.55;2321478;74;52542;-82
2024/03/28 10:27:20;;;;;;;4.62;2.15;;;;;;;21.02;48.89;98117.62;2382442;74;50928;-82
2024/03/28 10:30:24;;;;;;;4.97;2.22;;;;;;;21.02;48.88;98121.11;2382382;74;50650;-82
2024/03/28 10:33:26;;;;;;;6.83;2.40;;;;;;;21.03;48.85;98114.65;2321546;74;52829;-83
2024/03/28 10:36:28;;;;;;;8.58;2.50;;;;;;;21.05;48.83;98114.40;2383080;74;50694;-83
2024/03/28 10:39:31;;;;;;;4.12;2.12;;;;;;;21.06;48.81;98128.91;2383051;74;50824;-82
2024/03/28 10:42:35;;;;;;;6.95;2.12;;;;;;;21.07;48.82;98101.52;2350520;74;51647;-83
2024/03/28 10:45:41;;;;;;;4.20;2.20;;;;;;;21.08;48.82;98094.52;2382999;74;51646;-82
2024/03/28 10:48:45;;;;;;;5.72;2.00;;;;;;;21.09;48.82;98092.11;2349774;74;49970;-83
2024/03/28 10:51:49;;;;;;;3.37;1.85;;;;;;;21.11;48.82;98085.11;2383279;74;50732;-83
2024/03/28 10:54:52;;;;;;;5.53;1.90;;;;;;;21.13;48.76;98085.67;2382932;74;51318;-82
2024/03/28 10:57:55;;;;;;;4.33;1.80;;;;;;;21.15;48.55;98073.31;2349757;74;51520;-82
2024/03/28 11:00:58;;;;;;;3.77;1.77;;;;;;;21.17;48.55;98065.77;2382620;74;50738;-81
2024/03/28 11:04:00;;;;;;;4.03;2.00;;;;;;;21.17;48.35;98050.98;2381134;74;50852;-82
2024/03/28 11:07:03;;;;;;;5.33;1.92;;;;;;;21.18;48.33;98057.99;2344924;74;50715;-81
2024/03/28 11:10:05;;;;;;;3.58;1.70;;;;;;;21.19;48.25;98059.59;2368718;75;51349;-81
2024/03/28 11:13:07;;;;;;;4.40;1.57;;;;;;;21.20;48.24;98074.14;2307623;75;50034;-82
2024/03/28 11:16:10;;;;;;;3.10;1.40;;;;;;;21.20;48.25;98070.65;2368888;75;50746;-82
2024/03/28 11:19:12;;;;;;;3.08;1.90;;;;;;;21.21;48.19;98069.56;2368939;75;50864;-82
2024/03/28 11:22:16;;;;;;;2.22;1.60;;;;;;;21.21;48.25;98085.70;2369984;75;50370;-82
2024/03/28 11:25:30;;;;;;;4.05;1.77;;;;;;;21.21;48.26;98095.11;2333919;74;50789;-82
2024/03/28 11:28:33;;;;;;;4.53;1.70;;;;;;;21.21;48.17;98098.61;2369308;75;50700;-81
2024/03/28 11:31:35;;;;;;;4.08;1.80;;;;;;;21.21;48.07;98096.45;2308574;75;50147;-82
2024/03/28 11:34:37;;;;;;;4.72;1.70;;;;;;;21.21;48.08;98127.38;2332238;75;50316;-81
2024/03/28 11:37:40;;;;;;;6.05;1.60;;;;;;;21.22;48.03;98139.75;2368185;75;50687;-81
2024/03/28 11:40:42;;;;;;;4.05;1.77;;;;;;;21.23;48.03;98146.77;2307491;75;49555;-81
2024/03/28 11:43:46;;;;;;;2.98;1.50;;;;;;;21.23;48.06;98159.67;2334134;74;50360;-82
2024/03/28 11:46:48;;;;;;;3.05;1.87;;;;;;;21.28;47.96;98168.30;2368721;75;50660;-82
2024/03/28 11:49:51;;;;;;;2.55;1.60;;;;;;;21.29;47.88;98163.99;2369326;75;50872;-81
2024/03/28 11:52:53;;;;;;;7.95;1.87;;;;;;;21.32;48.03;98169.38;2370620;75;50698;-80
2024/03/28 11:55:55;;;;;;;4.97;1.70;;;;;;;21.35;48.24;98176.95;2334846;75;49986;-81
2024/03/28 11:58:57;;;;;;;5.22;1.72;;;;;;;21.39;50.88;98183.45;2370345;75;50360;-81
2024/03/28 12:02:05;;;;;;;4.50;1.75;;;;;;;21.48;49.65;98186.47;2335712;75;51685;-81
2024/03/28 12:05:08;;;;;;;2.98;2.12;;;;;;;21.49;48.61;98174.08;2334306;75;50082;-81
2024/03/28 12:08:10;;;;;;;2.42;1.70;;;;;;;21.50;48.37;98197.23;2332960;75;50425;-82
2024/03/28 12:11:12;;;;;;;3.98;1.87;;;;;;;21.50;48.22;98197.75;2335208;75;50562;-82
2024/03/28 12:14:21;;;;;;;2.77;1.82;;;;;;;21.50;48.11;98199.09;2304587;76;50693;-82
2024/03/28 12:17:27;;;;;;;4.65;1.82;;;;;;;21.51;48.04;98198.05;2334350;75;50751;-80
2024/03/28 12:20:27;;;;;;;3.08;1.77;;;;;;;21.51;48.03;98207.46;2311902;76;22527;-82
2024/03/28 12:23:29;;;;;;;4.47;1.80;;;;;;;21.51;48.05;98214.98;2309198;76;51315;-81
2024/03/28 12:26:32;;;;;;;3.90;2.10;;;;;;;21.52;48.00;98206.38;2330963;76;50343;-82
2024/03/28 12:29:34;;;;;;;2.92;1.65;;;;;;;21.53;47.85;98187.84;2309190;76;50059;-82
2024/03/28 12:32:36;;;;;;;2.95;1.52;;;;;;;21.52;47.86;98192.38;2309051;76;50585;-81
2024/03/28 12:35:38;;;;;;;3.15;1.60;;;;;;;21.51;47.82;98184.05;2331401;76;51740;-81
2024/03/28 12:38:42;;;;;;;2.75;1.42;;;;;;;21.51;47.85;98197.50;2332410;75;51627;-82
2024/03/28 12:41:48;;;;;;;2.55;1.50;;;;;;;21.51;47.80;98204.23;2311358;76;50900;-82
2024/03/28 12:44:49;;;;;;;;;;;;;;;21.48;47.80;98195.88;2312741;75;50064;-82
2024/03/28 12:47:52;;;;;;;3.65;1.47;;;;;;;21.49;47.67;98198.83;2333252;75;50712;-82
2024/03/28 12:50:54;;;;;;;2.62;1.52;;;;;;;21.48;47.66;98199.38;2333354;75;50381;-82
2024/03/28 12:53:58;;;;;;;5.33;1.55;;;;;;;21.46;47.67;98198.02;2285879;76;50829;-83
2024/03/28 12:57:00;;;;;;;3.98;1.70;;;;;;;21.46;47.67;98201.52;2333506;75;22295;-82
2024/03/28 13:00:02;;;;;;;3.83;1.85;;;;;;;21.46;47.66;98223.58;2337073;75;51478;-81
2024/03/28 13:03:05;;;;;;;2.27;1.60;;;;;;;21.44;47.74;98217.09;2281515;76;50051;-80
2024/03/28 13:06:07;;;;;;;3.58;1.50;;;;;;;21.44;47.75;98229.20;2307069;76;50759;-81
2024/03/28 13:09:09;;;;;;;1.98;1.37;;;;;;;21.43;47.71;98229.48;2306977;76;51085;-80
2024/03/28 13:12:12;;;;;;;1.60;1.35;;;;;;;21.42;47.77;98238.06;2305535;76;51264;-82
2024/03/28 13:15:14;;;;;;;2.05;1.30;;;;;;;21.40;47.77;98237.54;2342774;75;50723;-81
2024/03/28 13:18:16;;;;;;;3.35;1.42;;;;;;;21.39;47.78;98235.90;2343247;76;50730;-82
2024/03/28 13:21:19;;;;;;;2.15;1.47;;;;;;;21.38;47.78;98238.33;2343275;76;50737;-82
2024/03/28 13:24:22;;;;;;;2.52;1.20;;;;;;;21.37;47.81;98234.51;2343106;76;50763;-82
2024/03/28 13:27:24;;;;;;;2.30;1.22;;;;;;;21.36;47.79;98248.50;2306742;76;50108;-80
2024/03/28 13:30:27;;;;;;;4.30;1.30;;;;;;;21.35;47.80;98252.78;2342973;76;50709;-81
2024/03/28 13:33:29;;;;;;;3.83;1.17;;;;;;;21.34;47.83;98241.77;2306665;76;50620;-81
2024/03/28 13:36:31;;;;;;;3.75;1.50;;;;;;;21.33;47.86;98245.53;2341799;76;50692;-82
2024/03/28 13:39:33;;;;;;;1.65;1.10;;;;;;;21.33;47.80;98237.47;2320272;75;50662;-81
2024/03/28 13:42:35;;;;;;;2.37;1.22;;;;;;;21.32;47.78;98233.94;2326709;74;49414;-81
2024/03/28 13:45:38;;;;;;;2.25;1.30;;;;;;;21.32;47.81;98243.35;2340401;75;50717;-81
2024/03/28 13:48:40;;;;;;;3.27;1.65;;;;;;;21.33;47.75;98254.41;2328424;76;50692;-82
2024/03/28 13:51:42;;;;;;;4.33;1.20;;;;;;;21.32;47.81;98240.66;2294046;76;50185;-82
2024/03/28 13:54:46;;;;;;;1.90;1.32;;;;;;;21.30;47.78;98252.24;2328394;76;50315;-82
2024/03/28 13:57:48;;;;;;;6.78;1.10;;;;;;;21.30;47.74;98254.39;2327585;76;51509;-82
2024/03/28 14:00:50;;;;;;;1.87;1.22;;;;;;;21.33;47.61;98255.75;2329920;76;50950;-81
2024/03/28 14:03:52;;;;;;;6.25;1.17;;;;;;;21.33;47.62;98263.02;2329825;76;50942;-81
2024/03/28 14:06:55;;;;;;;4.10;1.22;;;;;;;21.33;47.61;98279.16;2295822;76;51113;-82
2024/03/28 14:09:57;;;;;;;4.47;1.30;;;;;;;21.30;47.68;98283.17;2320697;76;50649;-82
2024/03/28 14:12:59;;;;;;;3.77;1.10;;;;;;;21.28;47.70;98282.61;2332414;75;51826;-81
2024/03/28 14:16:01;;;;;;;3.80;1.10;;;;;;;21.28;47.65;98287.99;2332205;75;50063;-81
2024/03/28 14:19:03;;;;;;;2.52;1.32;;;;;;;21.28;47.54;98304.13;2357439;75;51728;-82
2024/03/28 14:22:06;;;;;;;1.62;0.95;;;;;;;21.26;47.52;98321.05;2358101;75;50791;-81
2024/03/28 14:25:08;;;;;;;1.65;1.12;;;;;;;21.24;47.49;98315.92;2311721;75;49710;-81